Time,TemperatureF,DewpointF,PressureIn,WindDirection,WindDirectionDegrees,WindSpeedMPH,WindSpeedGustMPH,Humidity,HourlyPrecipIn,Conditions,Clouds,dailyrainin,SoftwareType,DateUTC
2013-01-06 00:01:00,18.9,13.1,29.99,NW,310,3.6,4.0,78,0.00,,---,0.00,VWS V14.00,2013-01-06 06:01:00,
2013-01-06 00:06:00,18.7,13.0,29.99,NW,304,5.8,5.8,78,0.00,,---,0.00,VWS V14.00,2013-01-06 06:06:00,
2013-01-06 00:11:00,18.7,13.0,29.99,NW,315,6.3,7.6,78,0.00,,---,0.00,VWS V14.00,2013-01-06 06:11:00,
2013-01-06 00:16:00,18.5,12.8,29.99,WNW,303,5.8,5.8,78,0.00,,---,0.00,VWS V14.00,2013-01-06 06:16:00,
2013-01-06 00:21:00,18.5,12.8,29.99,WNW,290,5.8,6.3,78,0.00,,---,0.00,VWS V14.00,2013-01-06 06:21:00,
2013-01-06 00:26:00,18.5,12.8,29.99,WNW,286,8.7,8.7,78,0.00,,---,0.00,VWS V14.00,2013-01-06 06:26:00,
2013-01-06 00:31:00,18.5,13.1,29.99,NW,304,8.1,8.1,79,0.00,,---,0.00,VWS V14.00,2013-01-06 06:31:00,
2013-01-06 00:36:00,18.7,13.3,29.99,NW,304,6.3,10.1,79,0.00,,---,0.00,VWS V14.00,2013-01-06 06:36:00,
2013-01-06 00:41:00,18.5,13.1,30.02,NW,317,6.3,6.7,79,0.00,,---,0.00,VWS V14.00,2013-01-06 06:41:00,
2013-01-06 00:47:00,18.3,12.9,30.02,NW,311,4.9,5.8,79,0.00,,---,0.00,VWS V14.00,2013-01-06 06:47:00,
2013-01-06 00:52:00,18.3,12.9,30.02,NW,316,8.1,8.1,79,0.00,,---,0.00,VWS V14.00,2013-01-06 06:52:00,
2013-01-06 00:57:00,18.1,12.7,30.02,West,281,3.6,4.9,79,0.00,,---,0.00,VWS V14.00,2013-01-06 06:57:00,
2013-01-06 01:02:00,18.0,12.6,30.02,WNW,297,4.0,7.6,79,0.00,,---,0.00,VWS V14.00,2013-01-06 07:02:00,
2013-01-06 01:07:00,17.8,12.4,30.02,WNW,287,3.6,5.8,79,0.00,,---,0.00,VWS V14.00,2013-01-06 07:07:00,
2013-01-06 01:12:00,17.1,11.7,30.02,West,278,5.4,6.3,79,0.00,,---,0.00,VWS V14.00,2013-01-06 07:12:00,
2013-01-06 01:17:00,16.5,11.2,30.02,NW,304,5.4,5.8,79,0.00,,---,0.00,VWS V14.00,2013-01-06 07:17:00,
2013-01-06 01:22:00,16.2,10.8,30.02,WNW,294,2.7,3.6,79,0.00,,---,0.00,VWS V14.00,2013-01-06 07:22:00,
2013-01-06 01:27:00,16.0,10.6,30.02,WNW,294,3.1,5.4,79,0.00,,---,0.00,VWS V14.00,2013-01-06 07:27:00,
2013-01-06 01:32:00,15.6,10.6,30.02,West,265,3.1,3.6,80,0.00,,---,0.00,VWS V14.00,2013-01-06 07:32:00,
2013-01-06 01:37:00,15.1,10.0,30.02,West,276,2.7,5.4,80,0.00,,---,0.00,VWS V14.00,2013-01-06 07:37:00,
2013-01-06 01:42:00,14.7,9.7,30.02,West,267,3.6,3.6,80,0.00,,---,0.00,VWS V14.00,2013-01-06 07:42:00,
2013-01-06 01:47:00,14.2,9.2,30.02,West,263,2.2,2.7,80,0.00,,---,0.00,VWS V14.00,2013-01-06 07:47:00,
2013-01-06 01:52:00,13.6,8.6,30.02,West,277,3.6,4.0,80,0.00,,---,0.00,VWS V14.00,2013-01-06 07:52:00,
2013-01-06 01:57:00,13.5,8.4,30.02,WSW,246,4.0,5.8,80,0.00,,---,0.00,VWS V14.00,2013-01-06 07:57:00,
2013-01-06 02:02:00,13.3,8.3,30.02,West,270,3.1,5.4,80,0.00,,---,0.00,VWS V14.00,2013-01-06 08:02:00,
2013-01-06 02:07:00,13.5,8.4,30.02,West,269,2.7,4.0,80,0.00,,---,0.00,VWS V14.00,2013-01-06 08:07:00,
2013-01-06 02:12:00,13.5,8.4,30.02,WNW,285,3.1,5.4,80,0.00,,---,0.00,VWS V14.00,2013-01-06 08:12:00,
2013-01-06 02:17:00,13.5,8.4,30.02,West,270,2.7,4.0,80,0.00,,---,0.00,VWS V14.00,2013-01-06 08:17:00,
2013-01-06 02:22:00,13.3,8.3,30.02,West,274,4.0,4.0,80,0.00,,---,0.00,VWS V14.00,2013-01-06 08:22:00,
2013-01-06 02:27:00,13.3,8.3,30.05,West,279,2.7,3.6,80,0.00,,---,0.00,VWS V14.00,2013-01-06 08:27:00,
2013-01-06 02:32:00,13.3,8.3,30.05,WNW,298,2.7,4.0,80,0.00,,---,0.00,VWS V14.00,2013-01-06 08:32:00,
2013-01-06 02:37:00,13.6,8.6,30.05,NW,312,4.5,5.8,80,0.00,,---,0.00,VWS V14.00,2013-01-06 08:37:00,
2013-01-06 02:42:00,14.0,9.8,30.05,WNW,292,2.2,5.8,83,0.00,,---,0.00,VWS V14.00,2013-01-06 08:42:00,
2013-01-06 02:47:00,14.2,10.0,30.05,WNW,299,3.6,5.8,83,0.00,,---,0.00,VWS V14.00,2013-01-06 08:47:00,
2013-01-06 02:52:00,14.4,10.4,30.05,WNW,292,2.7,4.0,84,0.00,,---,0.00,VWS V14.00,2013-01-06 08:52:00,
2013-01-06 02:57:00,14.5,10.6,30.05,WNW,291,2.7,3.6,84,0.00,,---,0.00,VWS V14.00,2013-01-06 08:57:00,
2013-01-06 03:02:00,14.7,10.8,30.05,WNW,294,2.7,3.1,84,0.00,,---,0.00,VWS V14.00,2013-01-06 09:02:00,
2013-01-06 03:07:00,14.9,11.2,30.05,WNW,292,2.7,3.6,85,0.00,,---,0.00,VWS V14.00,2013-01-06 09:07:00,
2013-01-06 03:12:00,14.9,11.2,30.05,WNW,282,2.7,3.6,85,0.00,,---,0.00,VWS V14.00,2013-01-06 09:12:00,
2013-01-06 03:17:00,14.9,11.2,30.05,WNW,291,3.6,5.8,85,0.00,,---,0.00,VWS V14.00,2013-01-06 09:17:00,
2013-01-06 03:22:00,15.1,11.7,30.05,WNW,298,5.4,7.6,86,0.00,,---,0.00,VWS V14.00,2013-01-06 09:22:00,
2013-01-06 03:27:00,15.3,11.8,30.05,NW,304,4.9,5.8,86,0.00,,---,0.00,VWS V14.00,2013-01-06 09:27:00,
2013-01-06 03:33:00,15.4,12.0,30.05,NW,305,4.0,5.8,86,0.00,,---,0.00,VWS V14.00,2013-01-06 09:33:00,
2013-01-06 03:38:00,15.8,12.4,30.05,West,264,5.4,7.6,86,0.00,,---,0.00,VWS V14.00,2013-01-06 09:38:00,
2013-01-06 03:43:00,16.0,12.5,30.05,NW,306,5.8,6.3,86,0.00,,---,0.00,VWS V14.00,2013-01-06 09:43:00,
2013-01-06 03:48:00,16.2,12.4,30.05,WNW,298,7.6,8.1,85,0.00,,---,0.00,VWS V14.00,2013-01-06 09:48:00,
2013-01-06 03:53:00,16.2,12.4,30.05,NW,305,4.0,7.6,85,0.00,,---,0.00,VWS V14.00,2013-01-06 09:53:00,
2013-01-06 03:58:00,16.3,12.6,30.05,West,265,3.6,5.4,85,0.00,,---,0.00,VWS V14.00,2013-01-06 09:58:00,
2013-01-06 04:03:00,16.5,12.5,30.05,NW,322,3.6,5.4,84,0.00,,---,0.00,VWS V14.00,2013-01-06 10:03:00,
2013-01-06 04:08:00,16.5,12.5,30.05,WNW,284,2.7,4.9,84,0.00,,---,0.00,VWS V14.00,2013-01-06 10:08:00,
2013-01-06 04:13:00,16.5,12.3,30.08,NW,316,4.9,6.7,83,0.00,,---,0.00,VWS V14.00,2013-01-06 10:13:00,
2013-01-06 04:18:00,16.7,12.4,30.08,NNW,327,5.4,5.8,83,0.00,,---,0.00,VWS V14.00,2013-01-06 10:18:00,
2013-01-06 04:23:00,16.7,12.4,30.08,WNW,301,3.6,6.3,83,0.00,,---,0.00,VWS V14.00,2013-01-06 10:23:00,
2013-01-06 04:28:00,16.7,12.2,30.08,WNW,299,3.6,6.3,82,0.00,,---,0.00,VWS V14.00,2013-01-06 10:28:00,
2013-01-06 04:33:00,16.7,12.2,30.08,WNW,284,5.4,5.8,82,0.00,,---,0.00,VWS V14.00,2013-01-06 10:33:00,
2013-01-06 04:38:00,16.5,12.0,30.08,West,259,4.0,4.9,82,0.00,,---,0.00,VWS V14.00,2013-01-06 10:38:00,
2013-01-06 04:43:00,16.2,11.6,30.05,NW,306,2.7,3.6,82,0.00,,---,0.00,VWS V14.00,2013-01-06 10:43:00,
2013-01-06 04:48:00,15.8,11.3,30.05,West,278,2.2,4.0,82,0.00,,---,0.00,VWS V14.00,2013-01-06 10:48:00,
2013-01-06 04:53:00,15.4,10.9,30.05,WNW,291,4.0,4.5,82,0.00,,---,0.00,VWS V14.00,2013-01-06 10:53:00,
2013-01-06 04:58:00,15.1,10.6,30.05,West,281,3.1,4.0,82,0.00,,---,0.00,VWS V14.00,2013-01-06 10:58:00,
2013-01-06 05:03:00,14.4,9.6,30.05,West,273,0.0,2.7,81,0.00,,---,0.00,VWS V14.00,2013-01-06 11:03:00,
2013-01-06 05:08:00,13.6,9.2,30.05,West,270,2.2,2.2,82,0.00,,---,0.00,VWS V14.00,2013-01-06 11:08:00,
2013-01-06 05:13:00,13.5,9.0,30.08,WSW,254,2.7,5.4,82,0.00,,---,0.00,VWS V14.00,2013-01-06 11:13:00,
2013-01-06 05:18:00,13.1,8.6,30.08,West,270,3.1,4.0,82,0.00,,---,0.00,VWS V14.00,2013-01-06 11:18:00,
2013-01-06 05:23:00,12.9,8.5,30.08,WNW,285,3.1,5.4,82,0.00,,---,0.00,VWS V14.00,2013-01-06 11:23:00,
2013-01-06 05:28:00,12.9,8.5,30.08,WNW,288,4.0,5.4,82,0.00,,---,0.00,VWS V14.00,2013-01-06 11:28:00,
2013-01-06 05:33:00,13.1,8.6,30.08,NW,311,2.7,4.0,82,0.00,,---,0.00,VWS V14.00,2013-01-06 11:33:00,
2013-01-06 05:38:00,13.1,8.6,30.08,West,265,7.2,7.2,82,0.00,,---,0.00,VWS V14.00,2013-01-06 11:38:00,
2013-01-06 05:43:00,12.9,8.5,30.08,NW,312,6.3,7.2,82,0.00,,---,0.00,VWS V14.00,2013-01-06 11:43:00,
2013-01-06 05:48:00,12.9,8.5,30.08,NW,315,5.4,6.3,82,0.00,,---,0.00,VWS V14.00,2013-01-06 11:48:00,
2013-01-06 05:53:00,12.7,8.3,30.08,NW,309,3.6,5.8,82,0.00,,---,0.00,VWS V14.00,2013-01-06 11:53:00,
2013-01-06 05:58:00,12.2,7.8,30.11,NW,312,3.6,5.4,82,0.00,,---,0.00,VWS V14.00,2013-01-06 11:58:00,
2013-01-06 06:03:00,11.8,7.4,30.11,WNW,302,3.6,4.0,82,0.00,,---,0.00,VWS V14.00,2013-01-06 12:03:00,
2013-01-06 06:08:00,11.5,7.1,30.11,WNW,303,3.6,3.6,82,0.00,,---,0.00,VWS V14.00,2013-01-06 12:08:00,
2013-01-06 06:13:00,11.3,6.9,30.11,WNW,297,3.6,5.4,82,0.00,,---,0.00,VWS V14.00,2013-01-06 12:13:00,
2013-01-06 06:18:00,11.3,6.9,30.11,NNW,335,8.1,10.1,82,0.00,,---,0.00,VWS V14.00,2013-01-06 12:18:00,
2013-01-06 06:23:00,11.3,6.9,30.11,NW,326,5.4,8.1,82,0.00,,---,0.00,VWS V14.00,2013-01-06 12:23:00,
2013-01-06 06:28:00,10.9,6.5,30.11,NW,314,4.0,6.7,82,0.00,,---,0.00,VWS V14.00,2013-01-06 12:28:00,
2013-01-06 06:33:00,10.8,6.4,30.11,NW,307,6.3,6.3,82,0.00,,---,0.00,VWS V14.00,2013-01-06 12:33:00,
2013-01-06 06:38:00,10.6,6.2,30.11,WNW,298,5.4,5.8,82,0.00,,---,0.00,VWS V14.00,2013-01-06 12:38:00,
2013-01-06 06:43:00,10.4,6.0,30.11,WNW,296,3.6,4.0,82,0.00,,---,0.00,VWS V14.00,2013-01-06 12:43:00,
2013-01-06 06:48:00,10.2,5.8,30.11,WNW,298,5.4,6.3,82,0.00,,---,0.00,VWS V14.00,2013-01-06 12:48:00,
2013-01-06 06:53:00,10.0,5.7,30.11,NW,311,4.9,5.8,82,0.00,,---,0.00,VWS V14.00,2013-01-06 12:53:00,
2013-01-06 06:58:00,10.0,5.7,30.11,NW,306,4.0,4.0,82,0.00,,---,0.00,VWS V14.00,2013-01-06 12:58:00,
2013-01-06 07:03:00,9.9,5.5,30.11,WNW,302,3.1,4.0,82,0.00,,---,0.00,VWS V14.00,2013-01-06 13:03:00,
2013-01-06 07:08:00,9.7,5.3,30.11,WNW,298,2.7,3.1,82,0.00,,---,0.00,VWS V14.00,2013-01-06 13:08:00,
2013-01-06 07:13:00,9.3,4.9,30.14,NW,304,3.6,3.6,82,0.00,,---,0.00,VWS V14.00,2013-01-06 13:13:00,
2013-01-06 07:18:00,9.3,4.9,30.14,WNW,292,2.7,3.6,82,0.00,,---,0.00,VWS V14.00,2013-01-06 13:18:00,
2013-01-06 07:23:00,9.0,4.6,30.14,WNW,301,3.1,5.8,82,0.00,,---,0.00,VWS V14.00,2013-01-06 13:23:00,
2013-01-06 07:28:00,8.8,4.4,30.14,WNW,290,4.0,4.0,82,0.00,,---,0.00,VWS V14.00,2013-01-06 13:28:00,
2013-01-06 07:33:00,8.8,4.4,30.14,NW,312,4.5,5.8,82,0.00,,---,0.00,VWS V14.00,2013-01-06 13:33:00,
2013-01-06 07:38:00,8.8,4.4,30.14,WNW,302,3.6,5.4,82,0.00,,---,0.00,VWS V14.00,2013-01-06 13:38:00,
2013-01-06 07:43:00,8.8,4.4,30.14,NW,322,4.0,4.0,82,0.00,,---,0.00,VWS V14.00,2013-01-06 13:43:00,
2013-01-06 07:48:00,8.6,4.2,30.14,NW,309,2.7,4.9,82,0.00,,---,0.00,VWS V14.00,2013-01-06 13:48:00,
2013-01-06 07:54:00,8.4,4.1,30.14,WNW,302,2.2,3.6,82,0.00,,---,0.00,VWS V14.00,2013-01-06 13:54:00,
2013-01-06 07:59:00,8.4,4.1,30.14,NW,305,4.0,4.0,82,0.00,,---,0.00,VWS V14.00,2013-01-06 13:59:00,
2013-01-06 08:04:00,8.4,4.1,30.14,WNW,296,4.0,4.0,82,0.00,,---,0.00,VWS V14.00,2013-01-06 14:04:00,
2013-01-06 08:09:00,8.2,3.9,30.14,NW,306,3.1,4.0,82,0.00,,---,0.00,VWS V14.00,2013-01-06 14:09:00,
2013-01-06 08:14:00,8.4,4.1,30.17,NW,306,4.0,4.0,82,0.00,,---,0.00,VWS V14.00,2013-01-06 14:14:00,
2013-01-06 08:19:00,8.8,4.4,30.17,NW,304,5.4,5.4,82,0.00,,---,0.00,VWS V14.00,2013-01-06 14:19:00,
2013-01-06 08:24:00,9.3,4.9,30.17,NW,304,5.4,5.4,82,0.00,,---,0.00,VWS V14.00,2013-01-06 14:24:00,
2013-01-06 08:29:00,9.9,5.5,30.17,NW,305,3.1,4.0,82,0.00,,---,0.00,VWS V14.00,2013-01-06 14:29:00,
2013-01-06 08:34:00,10.4,6.0,30.17,WNW,289,3.6,3.6,82,0.00,,---,0.00,VWS V14.00,2013-01-06 14:34:00,
2013-01-06 08:39:00,10.9,6.5,30.17,NW,305,2.7,4.0,82,0.00,,---,0.00,VWS V14.00,2013-01-06 14:39:00,
2013-01-06 08:44:00,11.5,7.1,30.17,NW,305,2.7,4.0,82,0.00,,---,0.00,VWS V14.00,2013-01-06 14:44:00,
2013-01-06 08:49:00,12.0,7.6,30.17,NW,305,0.0,0.0,82,0.00,,---,0.00,VWS V14.00,2013-01-06 14:49:00,
2013-01-06 08:54:00,12.7,8.3,30.17,WSW,252,4.9,4.9,82,0.00,,---,0.00,VWS V14.00,2013-01-06 14:54:00,
2013-01-06 08:59:00,13.3,8.8,30.17,WNW,299,2.2,3.1,82,0.00,,---,0.00,VWS V14.00,2013-01-06 14:59:00,
2013-01-06 09:04:00,13.6,9.2,30.17,WNW,303,3.6,4.9,82,0.00,,---,0.00,VWS V14.00,2013-01-06 15:04:00,
2013-01-06 09:09:00,13.6,9.2,30.17,WNW,299,5.8,5.8,82,0.00,,---,0.00,VWS V14.00,2013-01-06 15:09:00,
2013-01-06 09:14:00,14.0,0.8,30.17,NW,316,4.0,5.4,55,0.00,,---,0.00,VWS V14.00,2013-01-06 15:14:00,
2013-01-06 09:19:00,14.4,1.2,30.17,NW,314,3.1,4.0,55,0.00,,---,0.00,VWS V14.00,2013-01-06 15:19:00,
2013-01-06 09:24:00,14.7,1.1,30.17,NW,316,4.9,5.4,54,0.00,,---,0.00,VWS V14.00,2013-01-06 15:24:00,
2013-01-06 09:29:00,15.1,1.4,30.17,NW,312,4.0,8.7,54,0.00,,---,0.00,VWS V14.00,2013-01-06 15:29:00,
2013-01-06 09:34:00,15.4,1.4,30.17,NW,320,4.0,4.9,53,0.00,,---,0.00,VWS V14.00,2013-01-06 15:34:00,
2013-01-06 09:39:00,15.8,1.3,30.17,NW,309,6.3,7.6,52,0.00,,---,0.00,VWS V14.00,2013-01-06 15:39:00,
2013-01-06 09:44:00,16.0,1.1,30.17,WNW,292,5.8,6.7,51,0.00,,---,0.00,VWS V14.00,2013-01-06 15:44:00,
2013-01-06 09:49:00,16.3,1.0,30.17,NW,319,6.3,8.1,50,0.00,,---,0.00,VWS V14.00,2013-01-06 15:49:00,
2013-01-06 09:54:00,16.5,1.1,30.17,NW,315,8.3,10.1,50,0.00,,---,0.00,VWS V14.00,2013-01-06 15:54:00,
2013-01-06 09:59:00,16.7,1.3,30.17,NW,311,6.7,8.7,50,0.00,,---,0.00,VWS V14.00,2013-01-06 15:59:00,
2013-01-06 10:04:00,16.7,0.9,30.17,NW,315,5.8,7.2,49,0.00,,---,0.00,VWS V14.00,2013-01-06 16:04:00,
2013-01-06 10:09:00,17.1,1.2,30.17,NW,306,4.0,8.3,49,0.00,,---,0.00,VWS V14.00,2013-01-06 16:09:00,
2013-01-06 10:14:00,17.6,1.7,30.17,NW,309,5.8,6.3,49,0.00,,---,0.00,VWS V14.00,2013-01-06 16:14:00,
2013-01-06 10:19:00,18.1,1.8,30.17,NW,318,4.9,7.6,48,0.00,,---,0.00,VWS V14.00,2013-01-06 16:19:00,
2013-01-06 10:24:00,18.7,2.3,30.17,WNW,300,7.6,8.3,48,0.00,,---,0.00,VWS V14.00,2013-01-06 16:24:00,
2013-01-06 10:29:00,18.9,2.4,30.20,West,263,5.4,7.6,48,0.00,,---,0.00,VWS V14.00,2013-01-06 16:29:00,
2013-01-06 10:34:00,19.2,2.3,30.20,WNW,294,5.8,8.3,47,0.00,,---,0.00,VWS V14.00,2013-01-06 16:34:00,
2013-01-06 10:39:00,19.6,2.6,30.20,NW,307,7.6,8.7,47,0.00,,---,0.00,VWS V14.00,2013-01-06 16:39:00,
2013-01-06 10:44:00,19.4,2.5,30.20,WNW,298,5.4,8.1,47,0.00,,---,0.00,VWS V14.00,2013-01-06 16:44:00,
2013-01-06 10:49:00,19.6,2.6,30.20,NW,308,4.0,5.8,47,0.00,,---,0.00,VWS V14.00,2013-01-06 16:49:00,
2013-01-06 10:54:00,20.3,3.3,30.20,NW,312,4.0,5.8,47,0.00,,---,0.00,VWS V14.00,2013-01-06 16:54:00,
2013-01-06 10:59:00,20.8,3.8,30.20,NW,308,3.6,4.9,47,0.00,,---,0.00,VWS V14.00,2013-01-06 16:59:00,
2013-01-06 11:04:00,21.0,3.5,30.20,NNW,331,5.8,6.3,46,0.00,,---,0.00,VWS V14.00,2013-01-06 17:04:00,
2013-01-06 11:10:00,21.4,3.8,30.20,NNW,343,4.0,4.0,46,0.00,,---,0.00,VWS V14.00,2013-01-06 17:10:00,
2013-01-06 11:15:00,21.7,3.7,30.17,WNW,302,3.6,5.4,45,0.00,,---,0.00,VWS V14.00,2013-01-06 17:15:00,
2013-01-06 11:20:00,22.5,4.3,30.17,NW,304,4.0,5.8,45,0.00,,---,0.00,VWS V14.00,2013-01-06 17:20:00,
2013-01-06 11:25:00,23.0,4.8,30.17,NW,322,4.9,4.9,45,0.00,,---,0.00,VWS V14.00,2013-01-06 17:25:00,
2013-01-06 11:30:00,23.5,4.8,30.17,WNW,289,4.0,6.3,44,0.00,,---,0.00,VWS V14.00,2013-01-06 17:30:00,
2013-01-06 11:35:00,23.5,4.3,30.17,NW,313,4.0,5.4,43,0.00,,---,0.00,VWS V14.00,2013-01-06 17:35:00,
2013-01-06 11:40:00,23.4,4.2,30.17,NW,316,5.4,5.4,43,0.00,,---,0.00,VWS V14.00,2013-01-06 17:40:00,
2013-01-06 11:45:00,23.5,4.3,30.17,NW,310,4.9,4.9,43,0.00,,---,0.00,VWS V14.00,2013-01-06 17:45:00,
2013-01-06 11:50:00,24.1,4.8,30.17,WNW,282,2.7,5.4,43,0.00,,---,0.00,VWS V14.00,2013-01-06 17:50:00,
2013-01-06 11:55:00,24.4,5.2,30.17,WSW,255,4.0,6.3,43,0.00,,---,0.00,VWS V14.00,2013-01-06 17:55:00,
2013-01-06 12:00:00,24.4,5.2,30.17,WSW,257,3.6,5.4,43,0.00,,---,0.00,VWS V14.00,2013-01-06 18:00:00,
2013-01-06 12:05:00,24.6,5.3,30.17,West,260,6.3,7.2,43,0.00,,---,0.00,VWS V14.00,2013-01-06 18:05:00,
2013-01-06 12:10:00,24.6,5.3,30.17,WNW,291,3.6,5.8,43,0.00,,---,0.00,VWS V14.00,2013-01-06 18:10:00,
2013-01-06 12:15:00,24.4,4.7,30.17,West,268,5.4,5.4,42,0.00,,---,0.00,VWS V14.00,2013-01-06 18:15:00,
2013-01-06 12:20:00,24.8,5.0,30.17,NNW,327,3.1,5.4,42,0.00,,---,0.00,VWS V14.00,2013-01-06 18:20:00,
2013-01-06 12:25:00,25.5,5.6,30.17,NW,321,4.0,5.4,42,0.00,,---,0.00,VWS V14.00,2013-01-06 18:25:00,
2013-01-06 12:30:00,26.8,6.8,30.17,SW,222,2.2,4.9,42,0.00,,---,0.00,VWS V14.00,2013-01-06 18:30:00,
2013-01-06 12:35:00,27.9,7.8,30.17,WSW,240,4.0,4.9,42,0.00,,---,0.00,VWS V14.00,2013-01-06 18:35:00,
2013-01-06 12:40:00,27.7,7.6,30.17,WSW,257,4.9,5.8,42,0.00,,---,0.00,VWS V14.00,2013-01-06 18:40:00,
2013-01-06 12:45:00,27.3,6.7,30.17,South,173,4.0,4.0,41,0.00,,---,0.00,VWS V14.00,2013-01-06 18:45:00,
2013-01-06 12:50:00,26.8,6.2,30.17,WSW,246,3.6,5.4,41,0.00,,---,0.00,VWS V14.00,2013-01-06 18:50:00,
2013-01-06 12:55:00,26.4,6.4,30.17,WSW,250,3.6,5.4,42,0.00,,---,0.00,VWS V14.00,2013-01-06 18:55:00,
2013-01-06 13:00:00,26.1,6.1,30.17,WSW,241,5.4,5.8,42,0.00,,---,0.00,VWS V14.00,2013-01-06 19:00:00,
2013-01-06 13:05:00,25.9,6.0,30.17,SW,229,3.6,7.2,42,0.00,,---,0.00,VWS V14.00,2013-01-06 19:05:00,
2013-01-06 13:10:00,25.5,5.6,30.17,West,277,2.7,4.0,42,0.00,,---,0.00,VWS V14.00,2013-01-06 19:10:00,
2013-01-06 13:15:00,25.3,5.5,30.17,SW,234,4.0,4.0,42,0.00,,---,0.00,VWS V14.00,2013-01-06 19:15:00,
2013-01-06 13:20:00,25.2,5.3,30.17,SW,221,3.1,4.0,42,0.00,,---,0.00,VWS V14.00,2013-01-06 19:20:00,
2013-01-06 13:25:00,24.6,4.8,30.17,WNW,293,3.6,4.0,42,0.00,,---,0.00,VWS V14.00,2013-01-06 19:25:00,
2013-01-06 13:30:00,24.3,4.5,30.14,West,270,4.0,4.9,42,0.00,,---,0.00,VWS V14.00,2013-01-06 19:30:00,
2013-01-06 13:35:00,23.7,4.0,30.14,WSW,249,2.7,4.0,42,0.00,,---,0.00,VWS V14.00,2013-01-06 19:35:00,
2013-01-06 13:40:00,23.9,4.7,30.14,West,264,4.0,5.4,43,0.00,,---,0.00,VWS V14.00,2013-01-06 19:40:00,
2013-01-06 13:45:00,23.7,4.5,30.14,WSW,244,4.9,5.8,43,0.00,,---,0.00,VWS V14.00,2013-01-06 19:45:00,
2013-01-06 13:51:00,23.9,4.7,30.14,WSW,251,4.9,4.9,43,0.00,,---,0.00,VWS V14.00,2013-01-06 19:51:00,
2013-01-06 13:56:00,24.1,4.8,30.14,SSW,211,3.1,4.9,43,0.00,,---,0.00,VWS V14.00,2013-01-06 19:56:00,
2013-01-06 14:01:00,24.1,4.8,30.14,South,188,3.6,3.6,43,0.00,,---,0.00,VWS V14.00,2013-01-06 20:01:00,
2013-01-06 14:06:00,24.1,4.8,30.14,WSW,255,2.2,4.0,43,0.00,,---,0.00,VWS V14.00,2013-01-06 20:06:00,
2013-01-06 14:11:00,24.1,4.8,30.17,SW,229,4.0,5.8,43,0.00,,---,0.00,VWS V14.00,2013-01-06 20:11:00,
2013-01-06 14:13:00,24.3,5.0,30.17,WSW,245,5.4,5.4,43,0.00,,---,0.00,VWS V14.00,2013-01-06 20:13:00,
2013-01-06 14:18:00,24.1,4.8,30.17,SW,219,5.4,5.4,43,0.00,,---,0.00,VWS V14.00,2013-01-06 20:18:00,
2013-01-06 14:23:00,23.7,4.5,30.17,SSW,205,4.5,5.8,43,0.00,,---,0.00,VWS V14.00,2013-01-06 20:23:00,
2013-01-06 14:28:00,23.5,4.3,30.17,SSW,203,5.4,5.4,43,0.00,,---,0.00,VWS V14.00,2013-01-06 20:28:00,
2013-01-06 14:33:00,23.4,4.2,30.17,SSW,213,5.8,5.8,43,0.00,,---,0.00,VWS V14.00,2013-01-06 20:33:00,
2013-01-06 14:38:00,23.0,3.8,30.17,WSW,253,4.0,4.9,43,0.00,,---,0.00,VWS V14.00,2013-01-06 20:38:00,
2013-01-06 14:43:00,22.8,3.7,30.17,SSW,193,4.0,5.8,43,0.00,,---,0.00,VWS V14.00,2013-01-06 20:43:00,
2013-01-06 14:48:00,22.8,3.7,30.17,WSW,248,3.1,4.9,43,0.00,,---,0.00,VWS V14.00,2013-01-06 20:48:00,
2013-01-06 14:54:00,22.6,3.5,30.17,South,171,4.0,4.5,43,0.00,,---,0.00,VWS V14.00,2013-01-06 20:54:00,
2013-01-06 14:59:00,22.5,3.4,30.17,SSW,210,2.7,4.9,43,0.00,,---,0.00,VWS V14.00,2013-01-06 20:59:00,
2013-01-06 15:01:00,22.5,3.4,30.17,South,173,3.1,4.9,43,0.00,,---,0.00,VWS V14.00,2013-01-06 21:01:00,
2013-01-06 15:06:00,22.5,3.9,30.17,SW,226,4.9,6.3,44,0.00,,---,0.00,VWS V14.00,2013-01-06 21:06:00,
2013-01-06 15:11:00,22.5,3.9,30.17,WSW,250,5.8,5.8,44,0.00,,---,0.00,VWS V14.00,2013-01-06 21:11:00,
2013-01-06 15:16:00,22.3,3.7,30.17,SW,230,5.4,5.4,44,0.00,,---,0.00,VWS V14.00,2013-01-06 21:16:00,
2013-01-06 15:21:00,21.9,3.4,30.17,SSW,200,3.6,7.6,44,0.00,,---,0.00,VWS V14.00,2013-01-06 21:21:00,
2013-01-06 15:26:00,21.6,3.0,30.17,SSE,166,6.7,6.7,44,0.00,,---,0.00,VWS V14.00,2013-01-06 21:26:00,
2013-01-06 15:31:00,21.0,2.5,30.17,SW,216,5.4,6.3,44,0.00,,---,0.00,VWS V14.00,2013-01-06 21:31:00,
2013-01-06 15:36:00,20.7,2.2,30.17,WSW,243,5.4,5.8,44,0.00,,---,0.00,VWS V14.00,2013-01-06 21:36:00,
2013-01-06 15:41:00,20.3,1.9,30.14,SSE,167,2.7,2.7,44,0.00,,---,0.00,VWS V14.00,2013-01-06 21:41:00,
2013-01-06 15:46:00,20.3,2.4,30.14,South,170,5.4,5.4,45,0.00,,---,0.00,VWS V14.00,2013-01-06 21:46:00,
2013-01-06 15:51:00,20.3,2.4,30.14,SSW,208,2.7,4.0,45,0.00,,---,0.00,VWS V14.00,2013-01-06 21:51:00,
2013-01-06 15:56:00,20.1,2.2,30.17,SSW,206,3.1,4.9,45,0.00,,---,0.00,VWS V14.00,2013-01-06 21:56:00,
2013-01-06 16:01:00,20.1,2.2,30.17,SSW,207,2.7,4.0,45,0.00,,---,0.00,VWS V14.00,2013-01-06 22:01:00,
2013-01-06 16:07:00,19.9,2.5,30.17,SSW,202,2.7,4.0,46,0.00,,---,0.00,VWS V14.00,2013-01-06 22:07:00,
2013-01-06 16:11:00,19.6,2.2,30.17,SW,223,2.7,3.6,46,0.00,,---,0.00,VWS V14.00,2013-01-06 22:11:00,
2013-01-06 16:16:00,19.4,2.0,30.17,SSW,208,4.0,4.0,46,0.00,,---,0.00,VWS V14.00,2013-01-06 22:16:00,
2013-01-06 16:22:00,19.2,1.8,30.17,SSW,201,4.0,4.0,46,0.00,,---,0.00,VWS V14.00,2013-01-06 22:22:00,
2013-01-06 16:27:00,18.5,1.2,30.17,SSW,209,3.1,4.0,46,0.00,,---,0.00,VWS V14.00,2013-01-06 22:27:00,
2013-01-06 16:32:00,18.1,0.9,30.17,SSW,211,2.2,2.7,46,0.00,,---,0.00,VWS V14.00,2013-01-06 22:32:00,
2013-01-06 16:37:00,17.4,0.6,30.17,SSW,206,4.0,4.9,47,0.00,,---,0.00,VWS V14.00,2013-01-06 22:37:00,
2013-01-06 16:42:00,16.9,0.2,30.14,SSW,200,3.1,4.0,47,0.00,,---,0.00,VWS V14.00,2013-01-06 22:42:00,
2013-01-06 16:47:00,16.5,-0.2,30.14,SSW,200,0.0,2.2,47,0.00,,---,0.00,VWS V14.00,2013-01-06 22:47:00,
2013-01-06 16:52:00,16.0,-0.7,30.14,SSW,200,0.0,0.0,47,0.00,,---,0.00,VWS V14.00,2013-01-06 22:52:00,
2013-01-06 16:57:00,15.3,-0.9,30.14,SSW,201,0.0,0.0,48,0.00,,---,0.00,VWS V14.00,2013-01-06 22:57:00,
2013-01-06 17:02:00,14.9,-1.2,30.14,SSW,200,0.0,0.0,48,0.00,,---,0.00,VWS V14.00,2013-01-06 23:02:00,
2013-01-06 17:07:00,14.4,-1.7,30.14,SSW,200,0.0,2.7,48,0.00,,---,0.00,VWS V14.00,2013-01-06 23:07:00,
2013-01-06 17:12:00,14.0,-2.1,30.14,SSW,200,0.0,0.0,48,0.00,,---,0.00,VWS V14.00,2013-01-06 23:12:00,
2013-01-06 17:17:00,13.5,-2.6,30.14,SSW,200,0.0,0.0,48,0.00,,---,0.00,VWS V14.00,2013-01-06 23:17:00,
2013-01-06 17:22:00,13.1,-2.9,30.14,SSW,200,0.0,0.0,48,0.00,,---,0.00,VWS V14.00,2013-01-06 23:22:00,
2013-01-06 17:27:00,12.7,-3.2,30.14,SSW,200,0.0,0.0,48,0.00,,---,0.00,VWS V14.00,2013-01-06 23:27:00,
2013-01-06 17:32:00,12.2,-3.7,30.14,SSW,200,0.0,0.0,48,0.00,,---,0.00,VWS V14.00,2013-01-06 23:32:00,
2013-01-06 17:37:00,12.0,-3.9,30.14,SSW,200,0.0,0.0,48,0.00,,---,0.00,VWS V14.00,2013-01-06 23:37:00,
2013-01-06 17:42:00,11.8,-4.1,30.14,SSW,201,0.0,0.0,48,0.00,,---,0.00,VWS V14.00,2013-01-06 23:42:00,
2013-01-06 17:47:00,11.7,-4.2,30.14,SSW,200,0.0,0.0,48,0.00,,---,0.00,VWS V14.00,2013-01-06 23:47:00,
2013-01-06 17:52:00,11.1,-4.7,30.14,SSW,201,0.0,0.0,48,0.00,,---,0.00,VWS V14.00,2013-01-06 23:52:00,
2013-01-06 17:57:00,10.8,-5.1,30.14,SSW,207,2.2,5.4,48,0.00,,---,0.00,VWS V14.00,2013-01-06 23:57:00,
2013-01-06 18:02:00,11.1,-4.7,30.14,South,179,2.7,2.7,48,0.00,,---,0.00,VWS V14.00,2013-01-07 00:02:00,
2013-01-06 18:07:00,11.8,-4.1,30.14,South,178,3.6,4.0,48,0.00,,---,0.00,VWS V14.00,2013-01-07 00:07:00,
2013-01-06 18:12:00,12.0,-3.9,30.14,South,182,2.7,3.1,48,0.00,,---,0.00,VWS V14.00,2013-01-07 00:12:00,
2013-01-06 18:17:00,12.6,-3.4,30.14,South,184,2.7,3.6,48,0.00,,---,0.00,VWS V14.00,2013-01-07 00:17:00,
2013-01-06 18:22:00,12.7,-3.2,30.14,South,183,2.7,3.1,48,0.00,,---,0.00,VWS V14.00,2013-01-07 00:22:00,
2013-01-06 18:27:00,12.7,-3.2,30.14,SSW,200,2.7,3.6,48,0.00,,---,0.00,VWS V14.00,2013-01-07 00:27:00,
2013-01-06 18:32:00,12.6,-3.4,30.14,SSW,205,2.7,3.1,48,0.00,,---,0.00,VWS V14.00,2013-01-07 00:32:00,
2013-01-06 18:37:00,12.6,-3.4,30.14,SSW,205,2.7,2.7,48,0.00,,---,0.00,VWS V14.00,2013-01-07 00:37:00,
2013-01-06 18:42:00,12.4,-3.6,30.14,SSW,203,2.2,3.1,48,0.00,,---,0.00,VWS V14.00,2013-01-07 00:42:00,
2013-01-06 18:47:00,12.2,-3.7,30.14,SSW,197,2.2,2.2,48,0.00,,---,0.00,VWS V14.00,2013-01-07 00:47:00,
2013-01-06 18:52:00,12.0,-3.9,30.14,SSW,197,2.2,2.2,48,0.00,,---,0.00,VWS V14.00,2013-01-07 00:52:00,
2013-01-06 18:57:00,11.8,-4.1,30.14,SSW,195,3.6,3.6,48,0.00,,---,0.00,VWS V14.00,2013-01-07 00:57:00,
2013-01-06 19:02:00,11.3,-4.6,30.14,SSW,195,0.0,2.7,48,0.00,,---,0.00,VWS V14.00,2013-01-07 01:02:00,
2013-01-06 19:07:00,10.9,-4.9,30.14,SSW,195,0.0,0.0,48,0.00,,---,0.00,VWS V14.00,2013-01-07 01:07:00,
2013-01-06 19:12:00,10.4,-5.4,30.14,SSW,194,0.0,0.0,48,0.00,,---,0.00,VWS V14.00,2013-01-07 01:12:00,
2013-01-06 19:17:00,9.9,-5.9,30.14,SSW,194,0.0,0.0,48,0.00,,---,0.00,VWS V14.00,2013-01-07 01:17:00,
2013-01-06 19:23:00,9.3,-6.4,30.14,SSW,195,0.0,0.0,48,0.00,,---,0.00,VWS V14.00,2013-01-07 01:23:00,
2013-01-06 19:28:00,9.1,-6.6,30.14,SSW,192,2.7,4.0,48,0.00,,---,0.00,VWS V14.00,2013-01-07 01:28:00,
2013-01-06 19:33:00,9.3,-6.4,30.14,SSW,193,2.7,3.6,48,0.00,,---,0.00,VWS V14.00,2013-01-07 01:33:00,
2013-01-06 19:38:00,9.1,-6.6,30.14,SSW,192,2.2,2.7,48,0.00,,---,0.00,VWS V14.00,2013-01-07 01:38:00,
2013-01-06 19:43:00,8.8,-6.9,30.11,South,190,3.1,3.1,48,0.00,,---,0.00,VWS V14.00,2013-01-07 01:43:00,
2013-01-06 19:48:00,8.8,-6.9,30.11,SSE,150,2.7,4.9,48,0.00,,---,0.00,VWS V14.00,2013-01-07 01:48:00,
2013-01-06 19:53:00,9.5,-6.2,30.11,SSE,148,4.9,4.9,48,0.00,,---,0.00,VWS V14.00,2013-01-07 01:53:00,
2013-01-06 19:58:00,10.2,-5.6,30.11,SE,145,4.0,6.3,48,0.00,,---,0.00,VWS V14.00,2013-01-07 01:58:00,
2013-01-06 20:03:00,10.9,-4.9,30.11,SSE,155,4.0,4.0,48,0.00,,---,0.00,VWS V14.00,2013-01-07 02:03:00,
2013-01-06 20:08:00,11.3,-4.6,30.11,SSE,154,2.7,5.4,48,0.00,,---,0.00,VWS V14.00,2013-01-07 02:08:00,
2013-01-06 20:13:00,11.5,-4.4,30.11,SSE,153,8.1,8.1,48,0.00,,---,0.00,VWS V14.00,2013-01-07 02:13:00,
2013-01-06 20:18:00,11.8,-4.1,30.11,SSE,162,5.8,7.6,48,0.00,,---,0.00,VWS V14.00,2013-01-07 02:18:00,
2013-01-06 20:23:00,12.4,-3.6,30.11,South,169,3.6,6.3,48,0.00,,---,0.00,VWS V14.00,2013-01-07 02:23:00,
2013-01-06 20:28:00,12.6,-3.4,30.08,SSE,165,6.3,6.3,48,0.00,,---,0.00,VWS V14.00,2013-01-07 02:28:00,
2013-01-06 20:33:00,12.9,-3.1,30.08,SE,145,3.6,6.3,48,0.00,,---,0.00,VWS V14.00,2013-01-07 02:33:00,
2013-01-06 20:38:00,13.1,-2.9,30.08,South,175,4.9,5.8,48,0.00,,---,0.00,VWS V14.00,2013-01-07 02:38:00,
2013-01-06 20:43:00,13.3,-2.7,30.08,SSE,158,8.1,8.1,48,0.00,,---,0.00,VWS V14.00,2013-01-07 02:43:00,
2013-01-06 20:48:00,13.3,-2.7,30.08,SE,144,4.9,6.3,48,0.00,,---,0.00,VWS V14.00,2013-01-07 02:48:00,
2013-01-06 20:53:00,13.5,-2.6,30.08,SE,143,4.9,7.6,48,0.00,,---,0.00,VWS V14.00,2013-01-07 02:53:00,
2013-01-06 20:58:00,13.6,-2.4,30.08,SSE,163,5.4,6.3,48,0.00,,---,0.00,VWS V14.00,2013-01-07 02:58:00,
2013-01-06 21:03:00,13.5,-2.6,30.08,South,178,4.0,5.4,48,0.00,,---,0.00,VWS V14.00,2013-01-07 03:03:00,
2013-01-06 21:08:00,13.5,-2.6,30.08,SSE,156,3.1,5.4,48,0.00,,---,0.00,VWS V14.00,2013-01-07 03:08:00,
2013-01-06 21:13:00,13.6,-2.4,30.05,SSE,161,5.4,6.3,48,0.00,,---,0.00,VWS V14.00,2013-01-07 03:13:00,
2013-01-06 21:18:00,13.8,-2.2,30.05,SSE,157,5.4,6.3,48,0.00,,---,0.00,VWS V14.00,2013-01-07 03:18:00,
2013-01-06 21:23:00,14.2,5.9,30.05,SSE,153,6.3,6.3,69,0.00,,---,0.00,VWS V14.00,2013-01-07 03:23:00,
2013-01-06 21:28:00,14.2,6.2,30.05,SSE,147,5.4,5.8,70,0.00,,---,0.00,VWS V14.00,2013-01-07 03:28:00,
2013-01-06 21:33:00,14.4,6.4,30.05,SE,130,6.3,6.3,70,0.00,,---,0.00,VWS V14.00,2013-01-07 03:33:00,
2013-01-06 21:38:00,14.4,6.4,30.05,SSE,162,5.4,6.3,70,0.00,,---,0.00,VWS V14.00,2013-01-07 03:38:00,
2013-01-06 21:43:00,14.5,6.6,30.05,SSE,155,4.9,6.3,70,0.00,,---,0.00,VWS V14.00,2013-01-07 03:43:00,
2013-01-06 21:48:00,14.7,6.7,30.05,SE,141,5.4,8.7,70,0.00,,---,0.00,VWS V14.00,2013-01-07 03:48:00,
2013-01-06 21:53:00,14.9,7.2,30.05,SSE,149,5.4,6.3,71,0.00,,---,0.00,VWS V14.00,2013-01-07 03:53:00,
2013-01-06 21:58:00,15.1,7.4,30.02,SE,145,11.0,11.0,71,0.00,,---,0.00,VWS V14.00,2013-01-07 03:58:00,
2013-01-06 22:03:00,15.3,7.6,30.02,SE,138,6.3,8.3,71,0.00,,---,0.00,VWS V14.00,2013-01-07 04:03:00,
2013-01-06 22:08:00,15.6,8.2,30.02,SE,144,6.3,6.3,72,0.00,,---,0.00,VWS V14.00,2013-01-07 04:08:00,
2013-01-06 22:13:00,15.8,8.7,30.02,SSE,149,5.8,8.7,73,0.00,,---,0.00,VWS V14.00,2013-01-07 04:13:00,
2013-01-06 22:18:00,16.0,8.6,30.02,SSE,152,6.3,6.3,72,0.00,,---,0.00,VWS V14.00,2013-01-07 04:18:00,
2013-01-06 22:23:00,15.8,8.7,30.02,SSE,159,5.8,8.7,73,0.00,,---,0.00,VWS V14.00,2013-01-07 04:23:00,
2013-01-06 22:28:00,15.8,8.4,30.02,SSE,150,8.1,8.7,72,0.00,,---,0.00,VWS V14.00,2013-01-07 04:28:00,
2013-01-06 22:33:00,15.8,8.4,30.02,SSE,158,5.8,7.6,72,0.00,,---,0.00,VWS V14.00,2013-01-07 04:33:00,
2013-01-06 22:38:00,16.0,8.6,30.02,SE,146,5.4,8.7,72,0.00,,---,0.00,VWS V14.00,2013-01-07 04:38:00,
2013-01-06 22:43:00,15.8,8.7,30.02,SSE,147,5.4,6.3,73,0.00,,---,0.00,VWS V14.00,2013-01-07 04:43:00,
2013-01-06 22:48:00,15.8,8.7,30.02,SSE,150,4.5,6.3,73,0.00,,---,0.00,VWS V14.00,2013-01-07 04:48:00,
2013-01-06 22:53:00,15.6,8.2,30.02,SSE,163,5.8,10.1,72,0.00,,---,0.00,VWS V14.00,2013-01-07 04:53:00,
2013-01-06 22:59:00,15.6,8.5,29.99,SE,139,8.1,8.7,73,0.00,,---,0.00,VWS V14.00,2013-01-07 04:59:00,
2013-01-06 23:00:00,15.4,8.4,29.99,SSE,154,5.8,8.1,73,0.00,,---,0.00,VWS V14.00,2013-01-07 05:00:00,
2013-01-06 23:01:00,15.4,8.4,29.99,South,188,5.8,6.3,73,0.00,,---,0.00,VWS V14.00,2013-01-07 05:01:00,
2013-01-06 23:06:00,15.4,8.4,29.99,SSE,160,8.3,8.3,73,0.00,,---,0.00,VWS V14.00,2013-01-07 05:06:00,
2013-01-06 23:11:00,15.6,8.8,29.99,SE,131,8.7,8.7,74,0.00,,---,0.00,VWS V14.00,2013-01-07 05:11:00,
2013-01-06 23:16:00,15.8,9.0,29.99,SSE,152,6.3,10.1,74,0.00,,---,0.00,VWS V14.00,2013-01-07 05:16:00,
2013-01-06 23:21:00,16.0,9.2,29.99,ESE,120,5.4,8.1,74,0.00,,---,0.00,VWS V14.00,2013-01-07 05:21:00,
2013-01-06 23:26:00,16.2,9.4,29.99,SSE,153,6.3,8.7,74,0.00,,---,0.00,VWS V14.00,2013-01-07 05:26:00,
2013-01-06 23:31:00,16.3,9.5,29.99,SSE,153,6.3,8.7,74,0.00,,---,0.00,VWS V14.00,2013-01-07 05:31:00,
2013-01-06 23:36:00,16.5,9.7,29.99,South,176,5.8,10.5,74,0.00,,---,0.00,VWS V14.00,2013-01-07 05:36:00,
2013-01-06 23:41:00,16.5,9.7,29.99,SSE,149,5.4,8.7,74,0.00,,---,0.00,VWS V14.00,2013-01-07 05:41:00,
2013-01-06 23:46:00,16.7,9.9,29.99,SSE,154,7.6,8.7,74,0.00,,---,0.00,VWS V14.00,2013-01-07 05:46:00,
2013-01-06 23:51:00,16.7,9.9,29.99,SSE,154,8.3,8.7,74,0.00,,---,0.00,VWS V14.00,2013-01-07 05:51:00,
2013-01-06 23:56:00,16.7,9.6,29.96,SSW,203,6.3,8.7,73,0.00,,---,0.00,VWS V14.00,2013-01-07 05:56:00,